M I D A S
Marine Information and Data Acquisition System
Tripno 1477 of the Zeeleeuw from 2008-02-13 08:18:54 to 2008-02-13 15:43:21
Back to CruiseResearch ActivitiesStationsMapUnderway DataData graphs

EquipmentUnitsComment
TimeDGPSUTC
LatitudeDGPSDM.mWGS84
LongitudeDGPSDM.mWGS84
HeadingGyrodeg 
SOGDGPSknotsSpeed over ground
COGDGPSdegCourse over ground
DepthEcho soundermeters200 kHz
Missing or incorrect values are displayed as -999
Navigation data collected by the RV Zeeleeuw from 2008-02-13 08:19:25 to 2008-02-13 15:53:38
                                                                                    Next 1000 lines
Time Latitude Longitude Heading SOG COG Depth
2008-02-13 08:19:35 51°13.664 2°55.953 125.7 0.2 280 6.4
2008-02-13 08:19:40 51°13.664 2°55.953 126.1 0.1 244 6.4
2008-02-13 08:19:45 51°13.664 2°55.953 126.6 0.1 176 6.4
2008-02-13 08:19:50 51°13.664 2°55.954 127.5 0.2 165 6.5
2008-02-13 08:19:55 51°13.663 2°55.954 128.3 0.2 146 6.5
2008-02-13 08:20:00 51°13.663 2°55.954 128.8 0.1 70 6.6
2008-02-13 08:20:05 51°13.664 2°55.954 129.3 0.1 47 6.6
2008-02-13 08:20:10 51°13.664 2°55.954 129.1 0.1 60 6.6
2008-02-13 08:20:15 51°13.664 2°55.955 127.8 0.1 87 6.5
2008-02-13 08:20:20 51°13.664 2°55.955 127.1 -999 95 6.5
2008-02-13 08:20:25 51°13.664 2°55.955 126.7 -999 84 -999
2008-02-13 08:20:30 51°13.664 2°55.955 126.2 -999 132 6.5
2008-02-13 08:20:35 51°13.664 2°55.955 125.4 0.1 162 6.4
2008-02-13 08:20:40 51°13.664 2°55.955 124.7 0.1 148 6.4
2008-02-13 08:20:45 51°13.663 2°55.955 124.1 0.1 160 6.4
2008-02-13 08:20:50 51°13.663 2°55.955 123.3 0.1 184 6.4
2008-02-13 08:20:55 51°13.663 2°55.955 122.3 -999 203 6.5
2008-02-13 08:21:00 51°13.663 2°55.955 121.1 0.1 193 6.5
2008-02-13 08:21:05 51°13.663 2°55.955 120.2 0.1 188 6.6
2008-02-13 08:21:10 51°13.663 2°55.955 119.3 0.1 198 6.5
2008-02-13 08:21:15 51°13.663 2°55.955 118.2 0.1 201 6.6
2008-02-13 08:21:20 51°13.663 2°55.955 116.9 0.1 201 6.5
2008-02-13 08:21:25 51°13.663 2°55.954 115.4 0.1 200 6.5
2008-02-13 08:21:30 51°13.663 2°55.954 114.5 0.1 193 6.5
2008-02-13 08:21:35 51°13.662 2°55.954 113.2 0.1 195 6.4
2008-02-13 08:21:40 51°13.662 2°55.954 112 0.1 194 6.4
2008-02-13 08:21:45 51°13.662 2°55.954 110.6 0.1 260 6.5
2008-02-13 08:21:50 51°13.662 2°55.953 109.5 0.3 283 6.5
2008-02-13 08:21:55 51°13.663 2°55.952 108.8 0.5 296 6.6
2008-02-13 08:22:00 51°13.663 2°55.951 108.2 0.8 293 6.5
2008-02-13 08:22:05 51°13.664 2°55.948 108 1.2 292 6.5
2008-02-13 08:22:10 51°13.665 2°55.945 107.9 1.6 292 6.5
2008-02-13 08:22:15 51°13.666 2°55.941 107.9 2.1 292 6.5
2008-02-13 08:22:20 51°13.667 2°55.935 107.9 2.5 291 6.6
2008-02-13 08:22:25 51°13.668 2°55.93 108 2.8 291 -999
2008-02-13 08:22:30 51°13.67 2°55.923 108.6 3.1 292 -999
2008-02-13 08:22:35 51°13.672 2°55.916 108.7 3.4 291 -999
2008-02-13 08:22:40 51°13.674 2°55.909 108.8 3.7 291 -999
2008-02-13 08:22:45 51°13.675 2°55.901 108.8 3.8 290 -999
2008-02-13 08:22:50 51°13.677 2°55.893 108.9 3.9 290 -999
2008-02-13 08:22:55 51°13.679 2°55.884 109.5 4 290 -999
2008-02-13 08:23:00 51°13.681 2°55.876 110.2 4.2 290 -999
2008-02-13 08:23:05 51°13.683 2°55.867 111 4.3 290 -999
2008-02-13 08:23:10 51°13.686 2°55.858 112.4 4.5 292 -999
2008-02-13 08:23:15 51°13.688 2°55.848 114.1 4.6 294 -999
2008-02-13 08:23:20 51°13.691 2°55.839 116.2 4.8 296 -999
2008-02-13 08:23:25 51°13.694 2°55.829 118.2 5 297 -999
2008-02-13 08:23:30 51°13.698 2°55.819 119.9 5.1 300 -999
2008-02-13 08:23:35 51°13.701 2°55.809 121.3 5.2 300 -999
2008-02-13 08:23:40 51°13.705 2°55.799 123.1 5.3 301 -999
2008-02-13 08:23:45 51°13.709 2°55.789 124.2 5.4 303 -999
2008-02-13 08:23:50 51°13.713 2°55.779 125.7 5.5 304 -999
2008-02-13 08:23:55 51°13.718 2°55.769 127.2 5.5 306 -999
2008-02-13 08:24:00 51°13.723 2°55.759 130 5.6 308 -999
2008-02-13 08:24:05 51°13.728 2°55.75 132.9 5.6 311 -999
2008-02-13 08:24:10 51°13.733 2°55.741 135.7 5.6 313 -999
2008-02-13 08:24:15 51°13.739 2°55.732 138.5 5.6 316 -999
2008-02-13 08:24:20 51°13.745 2°55.724 141.2 5.5 319 -999
2008-02-13 08:24:25 51°13.75 2°55.717 144.4 5.5 322 -999
2008-02-13 08:24:30 51°13.757 2°55.71 147.2 5.4 324 -999
2008-02-13 08:24:35 51°13.763 2°55.703 149 5.4 327 -999
2008-02-13 08:24:40 51°13.769 2°55.697 150.6 5.4 328 -999
2008-02-13 08:24:45 51°13.776 2°55.691 151.6 5.4 329 -999
2008-02-13 08:24:50 51°13.782 2°55.685 152.5 5.5 331 -999
2008-02-13 08:24:55 51°13.789 2°55.679 153.3 5.6 332 -999
2008-02-13 08:25:00 51°13.796 2°55.674 154.2 5.7 333 -999
2008-02-13 08:25:05 51°13.803 2°55.668 154.8 5.7 334 -999
2008-02-13 08:25:10 51°13.811 2°55.662 155.4 5.7 334 -999
2008-02-13 08:25:15 51°13.818 2°55.657 156.5 5.6 335 -999
2008-02-13 08:25:20 51°13.825 2°55.653 158.5 5.5 338 -999
2008-02-13 08:25:25 51°13.832 2°55.648 161.2 5.5 340 -999
2008-02-13 08:25:30 51°13.839 2°55.645 163.6 5.5 343 -999
2008-02-13 08:25:35 51°13.847 2°55.642 166.5 5.5 345 -999
2008-02-13 08:25:40 51°13.854 2°55.639 170.2 5.5 348 -999
2008-02-13 08:25:45 51°13.861 2°55.637 173.4 5.4 351 -999
2008-02-13 08:25:50 51°13.869 2°55.636 176.7 5.4 354 -999
2008-02-13 08:25:55 51°13.876 2°55.635 180.1 5.3 357 -999
2008-02-13 08:26:00 51°13.884 2°55.635 182.8 5.3 -999 -999
2008-02-13 08:26:05 51°13.891 2°55.636 186.5 5.3 3 -999
2008-02-13 08:26:10 51°13.898 2°55.637 189.7 5.2 6 -999
2008-02-13 08:26:15 51°13.905 2°55.638 192.2 4.9 8 -999
2008-02-13 08:26:20 51°13.911 2°55.64 195.8 4.5 10 -999
2008-02-13 08:26:25 51°13.916 2°55.642 198.4 4.2 12 -999
2008-02-13 08:26:30 51°13.922 2°55.644 201 4 14 -999
2008-02-13 08:26:35 51°13.927 2°55.647 202.6 3.8 16 -999
2008-02-13 08:26:40 51°13.932 2°55.649 204.6 3.6 17 5.5
2008-02-13 08:26:45 51°13.936 2°55.652 206 3.4 19 4.8
2008-02-13 08:26:50 51°13.94 2°55.654 208.1 3.2 20 10.9
2008-02-13 08:26:55 51°13.944 2°55.657 210.3 3 22 -999
2008-02-13 08:27:00 51°13.948 2°55.659 212.6 2.6 22 5.3
2008-02-13 08:27:05 51°13.95 2°55.661 214.7 1.8 29 11
2008-02-13 08:27:10 51°13.952 2°55.662 218.4 1.6 22 10.5
2008-02-13 08:27:15 51°13.954 2°55.664 223.1 1.5 32 10.3
2008-02-13 08:27:20 51°13.955 2°55.665 226.1 1.4 27 10.5
2008-02-13 08:27:25 51°13.956 2°55.667 228.8 1.1 36 11
2008-02-13 08:27:30 51°13.957 2°55.667 232 0.8 21 -999
2008-02-13 08:27:35 51°13.958 2°55.668 235.6 0.5 28 11
2008-02-13 08:27:40 51°13.959 2°55.668 239.2 0.5 338 -999
2008-02-13 08:27:45 51°13.959 2°55.666 243.1 0.6 271 11
2008-02-13 08:27:50 51°13.959 2°55.663 248.8 1.3 275 -999
2008-02-13 08:27:55 51°13.959 2°55.659 254.7 1.8 270 11
2008-02-13 08:28:00 51°13.959 2°55.654 262.7 2.3 279 11.1
2008-02-13 08:28:05 51°13.96 2°55.648 271.4 2.8 282 11
2008-02-13 08:28:10 51°13.962 2°55.641 278 3.3 290 11.1
2008-02-13 08:28:15 51°13.963 2°55.634 285.1 3.7 292 11.1
2008-02-13 08:28:20 51°13.966 2°55.626 290.8 4.2 299 11.1
2008-02-13 08:28:25 51°13.969 2°55.617 296 4.5 300 11.1
2008-02-13 08:28:30 51°13.973 2°55.608 300 4.8 304 11.1
2008-02-13 08:28:35 51°13.977 2°55.599 303.3 5 305 11.4
2008-02-13 08:28:40 51°13.981 2°55.59 305.7 5.2 308 11.1
2008-02-13 08:28:45 51°13.986 2°55.581 307.3 5.3 308 10.9
2008-02-13 08:28:50 51°13.991 2°55.572 308.3 5.4 310 10.9
2008-02-13 08:28:55 51°13.996 2°55.563 309.5 5.6 311 11
2008-02-13 08:29:00 51°14.001 2°55.554 310.6 5.6 313 11.2
2008-02-13 08:29:05 51°14.006 2°55.545 312.1 5.4 314 10.2
2008-02-13 08:29:10 51°14.012 2°55.537 313.5 5.4 316 10.7
2008-02-13 08:29:15 51°14.017 2°55.529 315.2 5.3 317 11
2008-02-13 08:29:20 51°14.022 2°55.521 317.1 5.2 319 10.7
2008-02-13 08:29:25 51°14.028 2°55.514 319.2 5.1 320 10.7
2008-02-13 08:29:30 51°14.034 2°55.507 320.6 5.1 322 11
2008-02-13 08:29:35 51°14.039 2°55.5 321.6 5 323 10.7
2008-02-13 08:29:40 51°14.045 2°55.494 323 4.9 325 11.3
2008-02-13 08:29:45 51°14.05 2°55.488 324.6 4.9 326 11.3
2008-02-13 08:29:50 51°14.056 2°55.482 326.1 4.8 326 11.3
2008-02-13 08:29:55 51°14.061 2°55.477 327.3 4.7 328 11.3
2008-02-13 08:30:00 51°14.067 2°55.471 328 4.7 329 11.2
2008-02-13 08:30:05 51°14.072 2°55.466 329.4 4.6 330 -999
2008-02-13 08:30:10 51°14.078 2°55.461 330.7 4.6 330 11.2
2008-02-13 08:30:15 51°14.083 2°55.456 331.6 4.5 331 11.2
2008-02-13 08:30:20 51°14.089 2°55.451 331.8 4.5 331 11.2
2008-02-13 08:30:25 51°14.094 2°55.446 331.8 4.4 331 -999
2008-02-13 08:30:30 51°14.1 2°55.442 332.1 4.4 332 -999
2008-02-13 08:30:35 51°14.105 2°55.437 332.5 4.4 331 11.2
2008-02-13 08:30:40 51°14.11 2°55.433 333 4.3 331 -999
2008-02-13 08:30:45 51°14.116 2°55.428 333.1 4.3 332 -999
2008-02-13 08:30:50 51°14.121 2°55.424 333.1 4.3 331 11.3
2008-02-13 08:30:55 51°14.126 2°55.419 332.9 4.3 330 -999
2008-02-13 08:31:00 51°14.131 2°55.415 332.4 4.3 331 -999
2008-02-13 08:31:05 51°14.136 2°55.41 331.9 4.4 330 -999
2008-02-13 08:31:10 51°14.142 2°55.405 331.7 4.4 331 11.3
2008-02-13 08:31:15 51°14.147 2°55.4 331.6 4.5 330 11.3
2008-02-13 08:31:20 51°14.153 2°55.395 331.3 4.5 330 -999
2008-02-13 08:31:25 51°14.158 2°55.39 330.8 4.6 329 -999
2008-02-13 08:31:30 51°14.163 2°55.384 329.9 4.6 328 11.3
2008-02-13 08:31:35 51°14.169 2°55.379 329.1 4.6 327 -999
2008-02-13 08:31:40 51°14.174 2°55.373 328 4.7 325 11.6
2008-02-13 08:31:45 51°14.179 2°55.367 326.1 4.7 325 11.2
2008-02-13 08:31:50 51°14.184 2°55.36 325.1 4.7 323 11.2
2008-02-13 08:31:55 51°14.19 2°55.354 324.2 4.7 323 11.2
2008-02-13 08:32:00 51°14.195 2°55.347 323.5 4.8 322 11.2
2008-02-13 08:32:05 51°14.2 2°55.341 322.6 4.8 321 -999
2008-02-13 08:32:10 51°14.205 2°55.334 321.6 4.8 319 11.2
2008-02-13 08:32:15 51°14.21 2°55.326 320.8 4.8 318 -999
2008-02-13 08:32:20 51°14.215 2°55.319 320.2 4.9 318 11.2
2008-02-13 08:32:25 51°14.22 2°55.312 319.3 4.9 317 11.2
2008-02-13 08:32:30 51°14.226 2°55.304 318.7 5.1 317 -999
2008-02-13 08:32:35 51°14.231 2°55.296 318.5 5.2 318 11.3
2008-02-13 08:32:40 51°14.236 2°55.288 318.7 5.4 318 11.2
2008-02-13 08:32:45 51°14.242 2°55.28 318.8 5.6 317 11.2
2008-02-13 08:32:50 51°14.248 2°55.271 318.5 5.9 316 11
2008-02-13 08:32:55 51°14.254 2°55.261 317.8 6.1 315 10.8
2008-02-13 08:33:00 51°14.26 2°55.251 316.8 6.3 315 10.1
2008-02-13 08:33:05 51°14.267 2°55.241 316.1 6.5 313 10.7
2008-02-13 08:33:10 51°14.273 2°55.23 315.3 6.7 313 10.3
2008-02-13 08:33:15 51°14.279 2°55.219 314.2 6.8 311 9.9
2008-02-13 08:33:20 51°14.285 2°55.207 313.3 6.9 310 9.8
2008-02-13 08:33:25 51°14.292 2°55.195 311.9 7 309 9.7
2008-02-13 08:33:30 51°14.298 2°55.183 311.1 7.1 309 9.9
2008-02-13 08:33:35 51°14.304 2°55.17 310.3 7.2 307 9.9
2008-02-13 08:33:40 51°14.31 2°55.157 309.3 7.2 307 9.9
2008-02-13 08:33:45 51°14.316 2°55.144 308.9 7.3 306 10.2
2008-02-13 08:33:50 51°14.322 2°55.131 308.4 7.4 306 10.6
2008-02-13 08:33:55 51°14.328 2°55.118 307.6 7.4 305 10.4
2008-02-13 08:34:00 51°14.333 2°55.104 306.9 7.5 304 11.1
2008-02-13 08:34:05 51°14.339 2°55.09 306.5 7.5 304 11.3
2008-02-13 08:34:10 51°14.345 2°55.076 305.8 7.7 303 11.2
2008-02-13 08:34:15 51°14.351 2°55.061 304.7 8 301 10.8
2008-02-13 08:34:20 51°14.357 2°55.045 303.5 8.3 300 10.8
2008-02-13 08:34:25 51°14.362 2°55.028 302.1 8.6 299 10.4
2008-02-13 08:34:30 51°14.368 2°55.011 300.7 8.8 299 10.4
2008-02-13 08:34:35 51°14.375 2°54.994 300.6 9 300 9.7
2008-02-13 08:34:40 51°14.381 2°54.977 301.8 9.2 301 10.5
2008-02-13 08:34:45 51°14.388 2°54.959 303.6 9.4 302 10
2008-02-13 08:34:50 51°14.395 2°54.941 304.7 9.6 302 9.9
2008-02-13 08:34:55 51°14.403 2°54.922 305.4 9.9 302 10.1
2008-02-13 08:35:00 51°14.41 2°54.903 305.7 10.2 303 10.2
2008-02-13 08:35:05 51°14.419 2°54.884 306.3 10.5 305 10.2
2008-02-13 08:35:10 51°14.428 2°54.866 308.4 10.7 307 10.2
2008-02-13 08:35:15 51°14.437 2°54.847 311.3 10.9 309 10.3
2008-02-13 08:35:20 51°14.447 2°54.829 314.2 11.1 311 10.3
2008-02-13 08:35:25 51°14.458 2°54.81 316.4 11.3 312 10.3
2008-02-13 08:35:30 51°14.469 2°54.792 316.9 11.5 313 10.3
2008-02-13 08:35:35 51°14.48 2°54.774 318.7 11.6 316 10.3
2008-02-13 08:35:40 51°14.492 2°54.756 321.2 11.8 318 10.3
2008-02-13 08:35:45 51°14.505 2°54.739 324.1 11.9 320 10.2
2008-02-13 08:35:50 51°14.518 2°54.723 325.9 12 323 10.1
2008-02-13 08:35:55 51°14.532 2°54.709 329.5 12 327 9.9
2008-02-13 08:36:00 51°14.547 2°54.695 333.7 12.1 328 9.9
2008-02-13 08:36:05 51°14.561 2°54.681 335.2 12.3 327 9.7
2008-02-13 08:36:10 51°14.576 2°54.667 334.7 12.3 329 9.6
2008-02-13 08:36:15 51°14.591 2°54.653 335.7 12.4 330 9.6
2008-02-13 08:36:20 51°14.606 2°54.64 336.4 12.4 331 9.5
2008-02-13 08:36:25 51°14.621 2°54.627 337.3 12.5 331 9.4
2008-02-13 08:36:30 51°14.636 2°54.613 337.7 12.5 331 9.4
2008-02-13 08:36:35 51°14.652 2°54.6 337.9 12.5 332 9.3
2008-02-13 08:36:40 51°14.667 2°54.587 338.3 12.6 331 9.3
2008-02-13 08:36:45 51°14.682 2°54.574 338.1 12.6 332 9.4
2008-02-13 08:36:50 51°14.697 2°54.56 338.1 12.6 331 9.5
2008-02-13 08:36:55 51°14.713 2°54.547 337.9 12.6 332 9.4
2008-02-13 08:37:00 51°14.728 2°54.534 337.7 12.6 331 9.5
2008-02-13 08:37:05 51°14.744 2°54.52 337.7 12.7 332 9.3
2008-02-13 08:37:10 51°14.759 2°54.507 337.7 12.6 332 9.2
2008-02-13 08:37:15 51°14.775 2°54.494 337.9 12.6 332 9.3
2008-02-13 08:37:20 51°14.79 2°54.481 338 12.6 332 9.3
2008-02-13 08:37:25 51°14.805 2°54.468 338.1 12.6 332 9.5
2008-02-13 08:37:30 51°14.821 2°54.455 338.1 12.6 332 9.1
2008-02-13 08:37:35 51°14.837 2°54.442 338.1 12.6 332 9.1
2008-02-13 08:37:40 51°14.852 2°54.429 338.3 12.6 332 9.2
2008-02-13 08:37:45 51°14.867 2°54.415 338.4 12.6 332 9.1
2008-02-13 08:37:50 51°14.883 2°54.402 338.1 12.6 331 9.1
2008-02-13 08:37:55 51°14.898 2°54.389 337.7 12.6 332 8.9
2008-02-13 08:38:00 51°14.913 2°54.376 337.8 12.6 332 8.7
2008-02-13 08:38:05 51°14.929 2°54.363 337.9 12.5 332 8.6
2008-02-13 08:38:10 51°14.944 2°54.35 338 12.5 332 8.4
2008-02-13 08:38:15 51°14.959 2°54.337 338.1 12.4 332 8.3
2008-02-13 08:38:20 51°14.974 2°54.324 338.2 12.4 332 8.3
2008-02-13 08:38:25 51°14.99 2°54.311 338.2 12.4 332 8.2
2008-02-13 08:38:30 51°15.005 2°54.299 338.2 12.4 332 8.1
2008-02-13 08:38:35 51°15.02 2°54.285 338.2 12.4 332 8
2008-02-13 08:38:40 51°15.035 2°54.272 338.2 12.4 330 8.1
2008-02-13 08:38:45 51°15.05 2°54.258 336.8 12.5 330 8.1
2008-02-13 08:38:50 51°15.065 2°54.244 336 12.5 328 8.1
2008-02-13 08:38:55 51°15.08 2°54.23 335.1 12.6 329 8.2
2008-02-13 08:39:00 51°15.094 2°54.214 334.7 12.6 327 8.2
2008-02-13 08:39:05 51°15.109 2°54.2 334.1 12.6 329 8.2
2008-02-13 08:39:10 51°15.124 2°54.185 334.1 12.6 327 8.3
2008-02-13 08:39:15 51°15.139 2°54.17 333.8 12.7 327 8.3
2008-02-13 08:39:20 51°15.153 2°54.154 332.9 12.7 327 8.3
2008-02-13 08:39:25 51°15.168 2°54.139 332.7 12.7 327 8.4
2008-02-13 08:39:30 51°15.183 2°54.123 332.7 12.7 326 8.5
2008-02-13 08:39:35 51°15.197 2°54.107 332.1 12.7 326 8.6
2008-02-13 08:39:40 51°15.212 2°54.091 331.6 12.8 325 8.7
2008-02-13 08:39:45 51°15.227 2°54.075 331.3 12.8 326 8.8
2008-02-13 08:39:50 51°15.241 2°54.06 331.4 12.8 327 8.7
2008-02-13 08:39:55 51°15.256 2°54.045 331.7 12.7 327 8.7
2008-02-13 08:40:00 51°15.272 2°54.03 333.1 12.7 329 8.8
2008-02-13 08:40:05 51°15.286 2°54.015 334.1 12.7 328 8.9
2008-02-13 08:40:10 51°15.302 2°54.002 335.1 12.7 331 8.9
2008-02-13 08:40:15 51°15.317 2°53.988 336 12.7 329 9
2008-02-13 08:40:20 51°15.333 2°53.974 335.9 12.7 332 9
2008-02-13 08:40:25 51°15.348 2°53.961 336.8 12.7 331 9.1
2008-02-13 08:40:30 51°15.364 2°53.948 337.5 12.7 332 9.4
2008-02-13 08:40:35 51°15.379 2°53.934 338.1 12.8 332 9.3
2008-02-13 08:40:40 51°15.395 2°53.922 338.5 12.7 332 9.3
2008-02-13 08:40:45 51°15.411 2°53.908 338.7 12.7 331 9.3
2008-02-13 08:40:50 51°15.426 2°53.895 338.3 12.8 332 9.5
2008-02-13 08:40:55 51°15.441 2°53.881 338 12.8 331 9.5
2008-02-13 08:41:00 51°15.457 2°53.867 337.5 12.8 331 9.6
2008-02-13 08:41:05 51°15.472 2°53.853 337.4 12.8 330 9.5
2008-02-13 08:41:10 51°15.488 2°53.838 336.7 12.8 329 9.6
2008-02-13 08:41:15 51°15.503 2°53.824 336 12.8 329 9.6
2008-02-13 08:41:20 51°15.518 2°53.809 335.6 12.7 329 9.7
2008-02-13 08:41:25 51°15.533 2°53.795 335.4 12.8 329 9.7
2008-02-13 08:41:30 51°15.548 2°53.78 335.5 12.8 329 9.9
2008-02-13 08:41:35 51°15.564 2°53.766 335.6 12.8 329 9.9
2008-02-13 08:41:40 51°15.579 2°53.751 336 12.8 329 9.8
2008-02-13 08:41:45 51°15.594 2°53.737 336 12.8 330 10
2008-02-13 08:41:50 51°15.61 2°53.723 336 12.7 330 9.9
2008-02-13 08:41:55 51°15.625 2°53.709 336.7 12.8 330 10
2008-02-13 08:42:00 51°15.64 2°53.695 336.7 12.7 330 10
2008-02-13 08:42:05 51°15.656 2°53.681 336.7 12.7 330 10
2008-02-13 08:42:10 51°15.671 2°53.667 336.5 12.7 330 10.1
2008-02-13 08:42:15 51°15.686 2°53.653 336.1 12.7 330 10.1
2008-02-13 08:42:20 51°15.702 2°53.639 336.1 12.7 330 10.2
2008-02-13 08:42:25 51°15.717 2°53.624 336.2 12.7 330 10.2
2008-02-13 08:42:30 51°15.732 2°53.61 336.1 12.7 329 10.3
2008-02-13 08:42:35 51°15.747 2°53.596 336 12.7 330 10.3
2008-02-13 08:42:40 51°15.762 2°53.582 336.1 12.7 330 10.4
2008-02-13 08:42:45 51°15.778 2°53.568 336.5 12.7 330 10.4
2008-02-13 08:42:50 51°15.793 2°53.554 336.7 12.7 330 10.4
2008-02-13 08:42:55 51°15.808 2°53.54 336.7 12.7 330 10.5
2008-02-13 08:43:00 51°15.824 2°53.526 336.7 12.7 331 10.5
2008-02-13 08:43:05 51°15.839 2°53.513 337.4 12.7 331 10.6
2008-02-13 08:43:10 51°15.855 2°53.499 337.8 12.7 332 10.6
2008-02-13 08:43:15 51°15.87 2°53.486 338.4 12.8 332 10.6
2008-02-13 08:43:20 51°15.886 2°53.472 338.5 12.8 331 10.7
2008-02-13 08:43:25 51°15.902 2°53.459 338.3 12.8 331 10.7
2008-02-13 08:43:30 51°15.917 2°53.445 338 12.8 331 10.7
2008-02-13 08:43:35 51°15.932 2°53.431 337.4 12.8 330 10.7
2008-02-13 08:43:40 51°15.948 2°53.417 337 12.8 330 10.8
2008-02-13 08:43:45 51°15.963 2°53.402 336.5 12.8 329 10.8
2008-02-13 08:43:50 51°15.978 2°53.388 336.1 12.8 330 10.8
2008-02-13 08:43:55 51°15.994 2°53.374 336.2 12.8 330 10.8
2008-02-13 08:44:00 51°16.009 2°53.359 336.4 12.8 330 10.8
2008-02-13 08:44:05 51°16.025 2°53.346 336.4 12.8 331 10.8
2008-02-13 08:44:10 51°16.04 2°53.332 336.6 12.8 331 10.9
2008-02-13 08:44:15 51°16.056 2°53.32 337.4 12.7 335 10.9
2008-02-13 08:44:20 51°16.072 2°53.307 339.5 12.8 333 10.9
2008-02-13 08:44:25 51°16.088 2°53.296 340.1 12.7 337 10.9
2008-02-13 08:44:30 51°16.104 2°53.284 341.5 12.8 335 11
2008-02-13 08:44:35 51°16.12 2°53.273 341.9 12.7 338 11
2008-02-13 08:44:40 51°16.137 2°53.261 342.6 12.8 335 11
2008-02-13 08:44:45 51°16.153 2°53.25 342.5 12.7 337 11
2008-02-13 08:44:50 51°16.169 2°53.239 342.4 12.8 336 11
2008-02-13 08:44:55 51°16.185 2°53.228 342.4 12.7 337 11
2008-02-13 08:45:00 51°16.202 2°53.216 342.6 12.8 336 11
2008-02-13 08:45:05 51°16.218 2°53.205 342.5 12.8 337 11
2008-02-13 08:45:10 51°16.234 2°53.194 342.3 12.8 337 11
2008-02-13 08:45:15 51°16.25 2°53.182 342.3 12.8 336 11
2008-02-13 08:45:20 51°16.266 2°53.171 342.3 12.8 335 11.1
2008-02-13 08:45:25 51°16.282 2°53.159 341.6 12.8 335 11.1
2008-02-13 08:45:30 51°16.299 2°53.147 341 12.8 334 11.1
2008-02-13 08:45:35 51°16.314 2°53.135 340.4 12.8 335 11.1
2008-02-13 08:45:40 51°16.331 2°53.123 340.2 12.8 335 11.1
2008-02-13 08:45:45 51°16.347 2°53.111 340.3 12.7 335 11.1
2008-02-13 08:45:50 51°16.362 2°53.099 340.5 12.7 335 11.1
2008-02-13 08:45:55 51°16.379 2°53.087 340.6 12.7 335 11.1
2008-02-13 08:46:00 51°16.395 2°53.075 340.8 12.8 335 11.1
2008-02-13 08:46:05 51°16.411 2°53.064 340.9 12.8 336 11.1
2008-02-13 08:46:10 51°16.427 2°53.051 341.1 12.8 335 11.1
2008-02-13 08:46:15 51°16.443 2°53.039 340.9 12.7 335 11.1
2008-02-13 08:46:20 51°16.459 2°53.027 340.7 12.8 335 11.1
2008-02-13 08:46:25 51°16.475 2°53.016 340.7 12.7 336 11.1
2008-02-13 08:46:30 51°16.491 2°53.004 340.9 12.7 336 11.1
2008-02-13 08:46:35 51°16.507 2°52.992 341.2 12.7 335 11.1
2008-02-13 08:46:40 51°16.523 2°52.981 341.3 12.7 336 11.1
2008-02-13 08:46:45 51°16.539 2°52.97 341.8 12.7 337 11
2008-02-13 08:46:50 51°16.556 2°52.959 342.4 12.7 337 11
2008-02-13 08:46:55 51°16.572 2°52.948 342.6 12.7 337 11
2008-02-13 08:47:00 51°16.588 2°52.937 342.6 12.7 337 11
2008-02-13 08:47:05 51°16.604 2°52.925 342.4 12.7 336 10.9
2008-02-13 08:47:10 51°16.62 2°52.914 341.8 12.7 335 10.8
2008-02-13 08:47:15 51°16.636 2°52.902 341.1 12.7 335 10.8
2008-02-13 08:47:20 51°16.652 2°52.89 340.7 12.7 335 10.8
2008-02-13 08:47:25 51°16.668 2°52.878 340.4 12.7 335 10.8
2008-02-13 08:47:30 51°16.684 2°52.866 340.3 12.7 335 10.7
2008-02-13 08:47:35 51°16.7 2°52.854 340.3 12.7 335 10.4
2008-02-13 08:47:40 51°16.716 2°52.842 340.4 12.7 335 10.3
2008-02-13 08:47:45 51°16.732 2°52.831 340.8 12.6 336 10.2
2008-02-13 08:47:50 51°16.748 2°52.82 341.4 12.6 337 9.8
2008-02-13 08:47:55 51°16.764 2°52.809 342.1 12.7 337 9.6
2008-02-13 08:48:00 51°16.78 2°52.799 342.5 12.6 337 9.3
2008-02-13 08:48:05 51°16.796 2°52.788 342.6 12.5 337 9
2008-02-13 08:48:10 51°16.812 2°52.777 342.8 12.5 337 9
2008-02-13 08:48:15 51°16.829 2°52.766 342.7 12.6 337 9
2008-02-13 08:48:20 51°16.845 2°52.756 342.5 12.6 337 8.9
2008-02-13 08:48:25 51°16.861 2°52.745 342.5 12.6 337 8.7
2008-02-13 08:48:30 51°16.877 2°52.734 342.5 12.6 337 8.7
2008-02-13 08:48:35 51°16.893 2°52.724 342.6 12.6 337 8.8
2008-02-13 08:48:40 51°16.909 2°52.713 342.7 12.6 337 8.6
2008-02-13 08:48:45 51°16.925 2°52.702 342.7 12.7 337 8.7
2008-02-13 08:48:50 51°16.942 2°52.691 342.7 12.7 337 8.9
2008-02-13 08:48:55 51°16.958 2°52.68 342.7 12.7 337 9
2008-02-13 08:49:00 51°16.974 2°52.67 342.7 12.8 337 9.2
2008-02-13 08:49:05 51°16.991 2°52.659 342.7 12.8 338 9.3
2008-02-13 08:49:10 51°17.007 2°52.648 342.7 12.8 338 9.3
2008-02-13 08:49:15 51°17.024 2°52.64 343.3 12.7 342 9.3
2008-02-13 08:49:20 51°17.041 2°52.63 346.1 12.8 340 9.2
2008-02-13 08:49:25 51°17.058 2°52.622 346.5 12.7 343 9.2
2008-02-13 08:49:30 51°17.075 2°52.613 347.6 12.7 341 9
2008-02-13 08:49:35 51°17.091 2°52.606 347.8 12.6 344 8.9
2008-02-13 08:49:40 51°17.108 2°52.597 348.5 12.6 342 8.9
2008-02-13 08:49:45 51°17.125 2°52.59 348.7 12.6 344 8.9
2008-02-13 08:49:50 51°17.142 2°52.582 348.8 12.7 343 8.9
2008-02-13 08:49:55 51°17.159 2°52.574 348.9 12.7 344 8.9
2008-02-13 08:50:00 51°17.175 2°52.566 348.9 12.7 343 9.1
2008-02-13 08:50:05 51°17.192 2°52.557 348.8 12.7 343 9
2008-02-13 08:50:10 51°17.209 2°52.549 348.7 12.7 343 9.2
2008-02-13 08:50:15 51°17.226 2°52.541 348.3 12.7 343 9.2
2008-02-13 08:50:20 51°17.243 2°52.532 348.3 12.8 342 9.2
2008-02-13 08:50:25 51°17.26 2°52.524 347.9 12.8 342 9.2
2008-02-13 08:50:30 51°17.277 2°52.514 347.1 12.8 341 9.3
2008-02-13 08:50:35 51°17.293 2°52.505 346.2 12.8 342 9.4
2008-02-13 08:50:40 51°17.31 2°52.496 345.9 12.8 341 9.5
2008-02-13 08:50:45 51°17.327 2°52.49 346.5 12.7 347 9.5
2008-02-13 08:50:50 51°17.344 2°52.482 349.5 12.7 345 9.4
2008-02-13 08:50:55 51°17.361 2°52.478 351 12.6 351 9.6
2008-02-13 08:51:00 51°17.379 2°52.472 353.8 12.7 349 9.4
2008-02-13 08:51:05 51°17.396 2°52.468 354.8 12.6 353 9.5
2008-02-13 08:51:10 51°17.413 2°52.464 356.4 12.6 351 9.7
2008-02-13 08:51:15 51°17.431 2°52.461 357 12.6 353 9.6
2008-02-13 08:51:20 51°17.448 2°52.458 357.7 12.6 353 9.7
2008-02-13 08:51:25 51°17.466 2°52.455 358.5 12.7 354 9.7
2008-02-13 08:51:30 51°17.483 2°52.452 358.5 12.7 354 9.7
2008-02-13 08:51:35 51°17.501 2°52.449 358.8 12.7 354 9.7
2008-02-13 08:51:40 51°17.518 2°52.446 358.9 12.7 354 9.8
2008-02-13 08:51:45 51°17.536 2°52.443 359.2 12.7 354 9.5
2008-02-13 08:51:50 51°17.553 2°52.439 359.1 12.7 353 9.8
2008-02-13 08:51:55 51°17.571 2°52.437 358.9 12.7 354 9.7
2008-02-13 08:52:00 51°17.588 2°52.434 358.9 12.7 354 9.6
2008-02-13 08:52:05 51°17.606 2°52.433 359.8 12.6 358 9.7
2008-02-13 08:52:10 51°17.623 2°52.43 1.4 12.7 355 9.7
2008-02-13 08:52:15 51°17.641 2°52.429 1.5 12.6 358 9.7
2008-02-13 08:52:20 51°17.658 2°52.427 2.3 12.6 356 9.6
2008-02-13 08:52:25 51°17.676 2°52.427 2.5 12.6 358 9.6
2008-02-13 08:52:30 51°17.693 2°52.425 2.6 12.6 357 9.6
2008-02-13 08:52:35 51°17.71 2°52.424 2.6 12.5 357 9.7
2008-02-13 08:52:40 51°17.728 2°52.422 2.6 12.5 357 9.7
2008-02-13 08:52:45 51°17.745 2°52.421 2.7 12.5 357 9.7
2008-02-13 08:52:50 51°17.762 2°52.42 2.8 12.5 358 9.5
2008-02-13 08:52:55 51°17.78 2°52.419 2.8 12.5 358 9.6
2008-02-13 08:53:00 51°17.797 2°52.42 3.5 12.4 4 9.6
2008-02-13 08:53:05 51°17.814 2°52.423 7.8 12.3 6 9.6
2008-02-13 08:53:10 51°17.831 2°52.425 10 12.4 4 9.6
2008-02-13 08:53:15 51°17.848 2°52.43 10.6 12.2 9 9.7
2008-02-13 08:53:20 51°17.865 2°52.432 12.6 12.4 6 9.7
2008-02-13 08:53:25 51°17.882 2°52.437 12.7 12.3 9 9.7
2008-02-13 08:53:30 51°17.899 2°52.442 13.6 12.3 10 9.8
2008-02-13 08:53:35 51°17.915 2°52.447 14 12.2 13 9.8
2008-02-13 08:53:40 51°17.931 2°52.456 15.7 12.1 20 9.8
2008-02-13 08:53:45 51°17.946 2°52.467 23.1 12 24 9.8
2008-02-13 08:53:50 51°17.962 2°52.477 27.4 12.1 22 9.8
2008-02-13 08:53:55 51°17.977 2°52.49 28 12 27 9.9
2008-02-13 08:54:00 51°17.992 2°52.501 30.3 12.1 25 9.8
2008-02-13 08:54:05 51°18.007 2°52.514 30.7 12.1 28 9.8
2008-02-13 08:54:10 51°18.021 2°52.526 31.8 12.1 29 10
2008-02-13 08:54:15 51°18.036 2°52.54 32.4 11.9 31 9.9
2008-02-13 08:54:20 51°18.049 2°52.556 34 11.9 38 9.9
2008-02-13 08:54:25 51°18.061 2°52.573 39.6 11.9 39 9.9
2008-02-13 08:54:30 51°18.074 2°52.589 42.3 11.9 39 9.9
2008-02-13 08:54:35 51°18.087 2°52.607 43.5 11.9 42 10
2008-02-13 08:54:40 51°18.099 2°52.624 44.8 11.9 41 10
2008-02-13 08:54:45 51°18.111 2°52.642 45.2 11.9 43 10
2008-02-13 08:54:50 51°18.123 2°52.66 46.1 12 42 10
2008-02-13 08:54:55 51°18.136 2°52.678 46.4 12 43 10
2008-02-13 08:55:00 51°18.148 2°52.696 46.4 11.9 43 10
2008-02-13 08:55:05 51°18.16 2°52.714 46.8 11.9 43 10
2008-02-13 08:55:10 51°18.172 2°52.732 46.8 11.9 42 10
2008-02-13 08:55:15 51°18.184 2°52.749 46.5 11.9 41 10.1
2008-02-13 08:55:20 51°18.197 2°52.767 45.6 11.9 41 10.2
2008-02-13 08:55:25 51°18.21 2°52.784 45 12 40 10.2
2008-02-13 08:55:30 51°18.222 2°52.801 44.5 12 40 10.1
2008-02-13 08:55:35 51°18.235 2°52.818 43.8 11.9 40 10.2
2008-02-13 08:55:40 51°18.248 2°52.835 43.6 11.9 41 10.2
2008-02-13 08:55:45 51°18.26 2°52.852 44.2 11.9 40 10.3
2008-02-13 08:55:50 51°18.273 2°52.869 44.4 11.9 40 10.2
2008-02-13 08:55:55 51°18.286 2°52.886 44.3 12 40 10.2
2008-02-13 08:56:00 51°18.299 2°52.903 44.2 12 40 10.3
2008-02-13 08:56:05 51°18.311 2°52.92 43.8 11.9 40 10.3
2008-02-13 08:56:10 51°18.324 2°52.937 43.8 11.9 40 10.3
2008-02-13 08:56:15 51°18.337 2°52.955 44 11.9 41 10.3
2008-02-13 08:56:20 51°18.349 2°52.972 44.4 12 41 10.4
2008-02-13 08:56:25 51°18.362 2°52.989 44.9 12 41 10.4
2008-02-13 08:56:30 51°18.374 2°53.007 45 11.9 42 10.4
2008-02-13 08:56:35 51°18.386 2°53.025 45.6 12 42 10.4
2008-02-13 08:56:40 51°18.399 2°53.042 45.8 11.9 42 10.4
2008-02-13 08:56:45 51°18.411 2°53.059 45.6 12 41 10.4
2008-02-13 08:56:50 51°18.424 2°53.077 45.2 12 41 10.4
2008-02-13 08:56:55 51°18.437 2°53.094 44.7 12 40 10.5
2008-02-13 08:57:00 51°18.449 2°53.111 44.2 12 40 10.4
2008-02-13 08:57:05 51°18.462 2°53.127 43.7 12 39 10.5
2008-02-13 08:57:10 51°18.475 2°53.144 43.6 12 40 10.4
2008-02-13 08:57:15 51°18.488 2°53.162 43.7 12 41 10.6
2008-02-13 08:57:20 51°18.501 2°53.178 44.4 12 39 10.4
2008-02-13 08:57:25 51°18.513 2°53.195 44.1 12 40 10.5
2008-02-13 08:57:30 51°18.526 2°53.213 43.9 11.9 40 10.6
2008-02-13 08:57:35 51°18.539 2°53.229 44.3 12 40 10.6
2008-02-13 08:57:40 51°18.551 2°53.246 43.9 12 40 10.5
2008-02-13 08:57:45 51°18.564 2°53.263 43.9 12 40 10.5
2008-02-13 08:57:50 51°18.577 2°53.28 44 11.9 40 10.6
2008-02-13 08:57:55 51°18.589 2°53.297 43.6 12 40 10.5
2008-02-13 08:58:00 51°18.602 2°53.313 43.8 11.9 39 10.5
2008-02-13 08:58:05 51°18.615 2°53.33 43 11.9 39 10.6
2008-02-13 08:58:10 51°18.628 2°53.347 43 11.9 39 10.5
2008-02-13 08:58:15 51°18.641 2°53.363 43.2 11.9 39 10.5
2008-02-13 08:58:20 51°18.654 2°53.38 43.1 11.9 39 10.6
2008-02-13 08:58:25 51°18.666 2°53.397 42.9 11.9 40 10.6
2008-02-13 08:58:30 51°18.679 2°53.413 43.3 11.9 39 10.6
2008-02-13 08:58:35 51°18.692 2°53.43 43.4 11.9 40 10.6
2008-02-13 08:58:40 51°18.704 2°53.447 43.6 11.9 39 10.6
2008-02-13 08:58:45 51°18.717 2°53.464 43.6 12 40 10.8
2008-02-13 08:58:50 51°18.73 2°53.481 43.8 11.9 41 10.8
2008-02-13 08:58:55 51°18.742 2°53.498 44.6 11.9 41 10.7
2008-02-13 08:59:00 51°18.755 2°53.516 44.7 11.9 41 10.7
2008-02-13 08:59:05 51°18.767 2°53.533 45.3 11.9 41 10.7
2008-02-13 08:59:10 51°18.779 2°53.55 45.1 11.9 41 10.7
2008-02-13 08:59:15 51°18.792 2°53.567 45 11.9 40 10.8
2008-02-13 08:59:20 51°18.804 2°53.584 44.7 11.9 40 10.8
2008-02-13 08:59:25 51°18.817 2°53.601 44.2 11.9 40 10.8
2008-02-13 08:59:30 51°18.83 2°53.617 44 11.9 39 10.8
2008-02-13 08:59:35 51°18.843 2°53.634 43.7 12 38 10.9
2008-02-13 08:59:40 51°18.856 2°53.65 43 11.9 39 10.8
2008-02-13 08:59:45 51°18.869 2°53.666 42.9 11.9 37 10.9
2008-02-13 08:59:50 51°18.882 2°53.682 42.7 11.9 37 11
2008-02-13 08:59:55 51°18.896 2°53.695 41.5 11.9 29 10.9
2008-02-13 09:00:00 51°18.911 2°53.707 35.8 11.9 28 10.9
2008-02-13 09:00:05 51°18.925 2°53.72 33.2 11.9 29 11
2008-02-13 09:00:10 51°18.94 2°53.731 33.3 12 26 11
2008-02-13 09:00:15 51°18.955 2°53.744 31.8 12 27 10.9
2008-02-13 09:00:20 51°18.97 2°53.755 31.2 12 25 11.1
2008-02-13 09:00:25 51°18.985 2°53.766 30.4 12 26 10.9
2008-02-13 09:00:30 51°19 2°53.777 30 12 25 11
2008-02-13 09:00:35 51°19.015 2°53.788 29.8 12 25 11.1
2008-02-13 09:00:40 51°19.03 2°53.799 29.6 12 25 11.1
2008-02-13 09:00:45 51°19.046 2°53.811 30.1 12 25 11
2008-02-13 09:00:50 51°19.061 2°53.822 30 12 24 11.1
2008-02-13 09:00:55 51°19.076 2°53.833 29.8 12 25 11.1
2008-02-13 09:01:00 51°19.091 2°53.844 29.9 11.9 25 11.1
2008-02-13 09:01:05 51°19.106 2°53.855 29.9 12 26 11.2
2008-02-13 09:01:10 51°19.121 2°53.867 30.2 12 26 11.2
2008-02-13 09:01:15 51°19.135 2°53.879 31.2 11.9 29 11.2
2008-02-13 09:01:20 51°19.15 2°53.891 32.6 11.9 27 11.2
2008-02-13 09:01:25 51°19.164 2°53.905 33.3 11.9 31 11.2
2008-02-13 09:01:30 51°19.178 2°53.918 34.6 11.9 29 11.2
2008-02-13 09:01:35 51°19.192 2°53.931 34.9 11.9 31 11.2
2008-02-13 09:01:40 51°19.207 2°53.944 35.3 11.9 30 11.2
2008-02-13 09:01:45 51°19.221 2°53.958 35.4 11.9 31 11.2
2008-02-13 09:01:50 51°19.235 2°53.97 35.1 11.9 29 11.3
2008-02-13 09:01:55 51°19.25 2°53.984 35 11.9 31 11.2
2008-02-13 09:02:00 51°19.264 2°53.996 34.8 11.9 28 11.3
2008-02-13 09:02:05 51°19.278 2°54.011 34.3 11.8 34 11.3
2008-02-13 09:02:10 51°19.292 2°54.024 36.3 11.9 31 11.3
2008-02-13 09:02:15 51°19.306 2°54.039 36.7 11.8 35 11.3
2008-02-13 09:02:20 51°19.319 2°54.053 38 11.8 33 11.3
2008-02-13 09:02:25 51°19.333 2°54.068 38.6 11.8 34 11.4
2008-02-13 09:02:30 51°19.346 2°54.083 38.7 11.8 35 11.3
2008-02-13 09:02:35 51°19.36 2°54.098 39.4 11.8 35 11.4
2008-02-13 09:02:40 51°19.373 2°54.113 39.5 11.8 34 11.4
2008-02-13 09:02:45 51°19.387 2°54.127 39.1 11.8 34 11.4
2008-02-13 09:02:50 51°19.4 2°54.142 38.6 11.8 34 11.5
2008-02-13 09:02:55 51°19.414 2°54.156 38.3 11.9 32 11.4
2008-02-13 09:03:00 51°19.428 2°54.17 37.6 11.9 33 11.5
2008-02-13 09:03:05 51°19.442 2°54.184 37.4 11.8 32 11.5
2008-02-13 09:03:10 51°19.456 2°54.198 37.1 11.8 33 11.5
2008-02-13 09:03:15 51°19.469 2°54.212 37.1 11.8 33 11.5
2008-02-13 09:03:20 51°19.482 2°54.228 37.5 11.8 36 11.5
2008-02-13 09:03:25 51°19.496 2°54.243 39.3 11.8 35 11.5
2008-02-13 09:03:30 51°19.509 2°54.259 40.1 11.7 38 11.6
2008-02-13 09:03:35 51°19.521 2°54.275 41.3 11.7 37 11.6
2008-02-13 09:03:40 51°19.534 2°54.291 42 11.8 38 11.5
2008-02-13 09:03:45 51°19.547 2°54.307 42 11.8 38 11.6
2008-02-13 09:03:50 51°19.56 2°54.323 42.3 11.8 38 11.6
2008-02-13 09:03:55 51°19.573 2°54.339 42.3 11.8 38 11.7
2008-02-13 09:04:00 51°19.586 2°54.355 42.5 11.8 37 11.7
2008-02-13 09:04:05 51°19.599 2°54.371 41.9 11.8 38 11.6
2008-02-13 09:04:10 51°19.612 2°54.386 42 11.8 37 11.7
2008-02-13 09:04:15 51°19.625 2°54.402 41.5 11.8 37 11.7
2008-02-13 09:04:20 51°19.638 2°54.417 41.2 11.8 36 11.7
2008-02-13 09:04:25 51°19.651 2°54.433 40.7 11.8 36 11.7
2008-02-13 09:04:30 51°19.665 2°54.448 40.4 11.7 35 11.8
2008-02-13 09:04:35 51°19.678 2°54.464 40.1 11.7 37 11.8
2008-02-13 09:04:40 51°19.691 2°54.479 40.4 11.7 36 11.8
2008-02-13 09:04:45 51°19.704 2°54.494 40.8 11.7 37 11.9
2008-02-13 09:04:50 51°19.717 2°54.51 41 11.8 38 11.9
2008-02-13 09:04:55 51°19.73 2°54.526 41.8 11.7 38 11.8
2008-02-13 09:05:00 51°19.742 2°54.542 42.1 11.7 38 11.9
2008-02-13 09:05:05 51°19.755 2°54.558 42.4 11.7 38 12
2008-02-13 09:05:10 51°19.768 2°54.574 42.4 11.7 38 11.9
2008-02-13 09:05:15 51°19.781 2°54.59 42.5 11.8 37 11.9
2008-02-13 09:05:20 51°19.794 2°54.606 42.1 11.7 37 11.9
2008-02-13 09:05:25 51°19.807 2°54.621 41.7 11.7 37 11.9
2008-02-13 09:05:30 51°19.82 2°54.637 41.5 11.7 36 11.9
2008-02-13 09:05:35 51°19.833 2°54.652 41 11.7 37 11.9
2008-02-13 09:05:40 51°19.846 2°54.668 40.9 11.7 36 12
2008-02-13 09:05:45 51°19.86 2°54.683 40.8 11.8 37 12
2008-02-13 09:05:50 51°19.873 2°54.699 40.6 11.8 36 12
2008-02-13 09:05:55 51°19.886 2°54.714 40.7 11.7 36 12
2008-02-13 09:06:00 51°19.899 2°54.729 40.6 11.8 36 12.1
2008-02-13 09:06:05 51°19.912 2°54.744 40.4 11.7 36 12.1
2008-02-13 09:06:10 51°19.925 2°54.759 40.3 11.7 36 12.1
2008-02-13 09:06:15 51°19.938 2°54.775 40.4 11.7 37 12.2
2008-02-13 09:06:20 51°19.951 2°54.791 41 11.8 37 12.2
2008-02-13 09:06:25 51°19.964 2°54.807 41.4 11.7 37 12.2
2008-02-13 09:06:30 51°19.977 2°54.823 41.9 11.8 38 12.2
2008-02-13 09:06:35 51°19.99 2°54.839 42.2 11.7 38 12.2
2008-02-13 09:06:40 51°20.003 2°54.855 42.3 11.8 38 12.2
2008-02-13 09:06:45 51°20.016 2°54.871 42.4 11.9 37 12.2
2008-02-13 09:06:50 51°20.029 2°54.887 42 11.8 38 12.2
2008-02-13 09:06:55 51°20.042 2°54.903 42 11.8 37 12.2
2008-02-13 09:07:00 51°20.055 2°54.919 41.7 11.9 38 12.2
2008-02-13 09:07:05 51°20.068 2°54.934 41.9 11.9 37 12.2
2008-02-13 09:07:10 51°20.081 2°54.951 41.9 11.9 38 12.3
2008-02-13 09:07:15 51°20.094 2°54.966 41.9 11.8 37 12.4
2008-02-13 09:07:20 51°20.107 2°54.981 41.7 11.8 36 12.3
2008-02-13 09:07:25 51°20.121 2°54.997 40.9 11.9 36 12.3
2008-02-13 09:07:30 51°20.134 2°55.012 40.7 11.9 36 12.3
2008-02-13 09:07:35 51°20.148 2°55.028 40.4 11.9 36 12.3
2008-02-13 09:07:40 51°20.161 2°55.043 40.5 11.9 37 12.4
2008-02-13 09:07:45 51°20.174 2°55.059 40.9 11.9 38 12.3
2008-02-13 09:07:50 51°20.187 2°55.076 41.5 11.9 38 12.4
2008-02-13 09:07:55 51°20.2 2°55.092 42.1 11.9 38 12.4
2008-02-13 09:08:00 51°20.213 2°55.108 42.2 11.9 38 12.4
2008-02-13 09:08:05 51°20.226 2°55.124 42.2 11.9 38 12.4
2008-02-13 09:08:10 51°20.239 2°55.14 42 12 37 12.5
2008-02-13 09:08:15 51°20.252 2°55.156 41.7 11.9 38 12.5
2008-02-13 09:08:20 51°20.265 2°55.172 42 11.9 37 12.5
2008-02-13 09:08:25 51°20.278 2°55.188 41.6 11.9 36 12.5
2008-02-13 09:08:30 51°20.292 2°55.203 40.9 11.9 35 12.6
2008-02-13 09:08:35 51°20.305 2°55.218 40.4 11.9 36 12.5
2008-02-13 09:08:40 51°20.319 2°55.234 40.2 11.9 36 12.6
2008-02-13 09:08:45 51°20.332 2°55.249 40.3 11.9 37 12.6
2008-02-13 09:08:50 51°20.345 2°55.265 40.8 11.8 37 12.6
2008-02-13 09:08:55 51°20.358 2°55.281 41.3 11.8 37 12.7
2008-02-13 09:09:00 51°20.371 2°55.297 41.7 11.8 38 12.6
2008-02-13 09:09:05 51°20.384 2°55.313 42.2 11.9 37 12.7
2008-02-13 09:09:10 51°20.397 2°55.329 42.2 11.9 38 12.8
2008-02-13 09:09:15 51°20.41 2°55.345 42.2 11.9 38 12.8
2008-02-13 09:09:20 51°20.423 2°55.361 42.1 11.8 37 12.7
2008-02-13 09:09:25 51°20.436 2°55.377 41.7 11.8 36 12.8
2008-02-13 09:09:30 51°20.45 2°55.392 41.3 11.8 36 12.8
2008-02-13 09:09:35 51°20.463 2°55.407 40.7 11.8 37 12.8
2008-02-13 09:09:40 51°20.476 2°55.423 40.8 11.8 36 12.8
2008-02-13 09:09:45 51°20.489 2°55.438 41.1 11.8 36 12.7
2008-02-13 09:09:50 51°20.502 2°55.454 40.9 11.8 36 12.8
2008-02-13 09:09:55 51°20.516 2°55.469 40.8 11.8 36 12.9
2008-02-13 09:10:00 51°20.529 2°55.484 40.6 11.8 37 12.9
2008-02-13 09:10:05 51°20.542 2°55.5 40.7 11.8 36 12.9
2008-02-13 09:10:10 51°20.555 2°55.515 40.6 11.8 36 13
2008-02-13 09:10:15 51°20.568 2°55.53 40.6 11.8 36 13
2008-02-13 09:10:20 51°20.581 2°55.546 40.6 11.8 36 13
2008-02-13 09:10:25 51°20.595 2°55.561 40.7 11.8 37 13
2008-02-13 09:10:30 51°20.608 2°55.577 41.1 11.8 37 13
2008-02-13 09:10:35 51°20.621 2°55.593 41.3 11.8 37 13
2008-02-13 09:10:40 51°20.634 2°55.609 41.3 11.8 38 13.1
2008-02-13 09:10:45 51°20.647 2°55.625 41.9 11.9 38 13.1
2008-02-13 09:10:50 51°20.66 2°55.641 42.2 11.8 38 13.1
2008-02-13 09:10:55 51°20.673 2°55.657 42.4 11.9 38 13.1
2008-02-13 09:11:00 51°20.686 2°55.673 42.2 11.9 37 13.1
2008-02-13 09:11:05 51°20.699 2°55.689 41.7 11.9 37 13.2
2008-02-13 09:11:10 51°20.712 2°55.705 41.8 11.9 37 13.2
2008-02-13 09:11:15 51°20.725 2°55.721 41.8 11.9 38 13.1
2008-02-13 09:11:20 51°20.738 2°55.737 42 11.8 38 13.2
2008-02-13 09:11:25 51°20.751 2°55.753 42.2 11.9 37 13.2
2008-02-13 09:11:30 51°20.764 2°55.769 42 11.9 37 13.2
2008-02-13 09:11:35 51°20.778 2°55.784 41.4 11.9 36 13.2
2008-02-13 09:11:40 51°20.791 2°55.799 40.8 11.8 36 13.3
2008-02-13 09:11:45 51°20.804 2°55.815 40.5 11.9 36 13.3
2008-02-13 09:11:50 51°20.818 2°55.83 40.5 11.9 35 13.3
2008-02-13 09:11:55 51°20.831 2°55.845 40.3 11.8 36 13.4
2008-02-13 09:12:00 51°20.844 2°55.861 40.1 11.8 36 13.4
2008-02-13 09:12:05 51°20.858 2°55.876 40.5 11.8 36 13.4
2008-02-13 09:12:10 51°20.871 2°55.892 40.7 11.9 38 13.4
2008-02-13 09:12:15 51°20.884 2°55.908 41.6 11.9 38 13.4
2008-02-13 09:12:20 51°20.897 2°55.925 42 11.8 38 13.4
2008-02-13 09:12:25 51°20.91 2°55.941 42.1 11.8 39 13.4
2008-02-13 09:12:30 51°20.922 2°55.958 43.5 11.8 41 13.5
2008-02-13 09:12:35 51°20.935 2°55.975 44.3 11.8 40 13.5
2008-02-13 09:12:40 51°20.947 2°55.992 44.4 11.8 42 13.5
2008-02-13 09:12:45 51°20.959 2°56.009 45 11.8 40 13.6
2008-02-13 09:12:50 51°20.972 2°56.027 45.1 11.8 41 13.5
2008-02-13 09:12:55 51°20.984 2°56.043 44.9 11.8 41 13.6
2008-02-13 09:13:00 51°20.996 2°56.061 44.9 11.8 41 13.6
2008-02-13 09:13:05 51°21.009 2°56.078 44.9 11.8 41 13.6
2008-02-13 09:13:10 51°21.021 2°56.095 45.1 11.8 40 13.6
2008-02-13 09:13:15 51°21.034 2°56.112 44.9 11.8 40 13.6
2008-02-13 09:13:20 51°21.046 2°56.128 44.2 11.9 40 13.6
2008-02-13 09:13:25 51°21.059 2°56.145 44 11.9 39 13.7
2008-02-13 09:13:30 51°21.072 2°56.162 43.5 11.8 40 13.6
2008-02-13 09:13:35 51°21.084 2°56.178 43.5 11.8 40 13.7
2008-02-13 09:13:40 51°21.097 2°56.195 43.6 11.9 39 13.7
2008-02-13 09:13:45 51°21.11 2°56.212 43.6 11.8 40 13.7
2008-02-13 09:13:50 51°21.123 2°56.228 44.1 11.9 39 13.8
2008-02-13 09:13:55 51°21.135 2°56.245 43.9 11.9 40 13.8
2008-02-13 09:14:00 51°21.148 2°56.262 43.8 11.9 39 13.8
2008-02-13 09:14:05 51°21.161 2°56.279 43.7 11.9 40 13.8
2008-02-13 09:14:10 51°21.174 2°56.296 44.2 11.9 40 13.9
2008-02-13 09:14:15 51°21.186 2°56.313 44.5 11.8 41 13.8
2008-02-13 09:14:20 51°21.198 2°56.33 44.9 11.8 40 13.9
2008-02-13 09:14:25 51°21.211 2°56.347 44.9 11.9 41 13.9
2008-02-13 09:14:30 51°21.223 2°56.364 44.9 11.9 40 14
2008-02-13 09:14:35 51°21.235 2°56.382 44.9 11.9 42 14
2008-02-13 09:14:40 51°21.248 2°56.399 45.7 11.8 42 14
2008-02-13 09:14:45 51°21.259 2°56.418 46.3 11.8 44 14
2008-02-13 09:14:50 51°21.271 2°56.435 47.1 11.8 42 14.1
2008-02-13 09:14:55 51°21.283 2°56.453 47 11.8 44 14
2008-02-13 09:15:00 51°21.295 2°56.471 47.1 11.9 42 14.2
2008-02-13 09:15:05 51°21.307 2°56.489 46.8 11.8 43 14.1
2008-02-13 09:15:10 51°21.319 2°56.507 46.6 11.8 43 14.1
2008-02-13 09:15:15 51°21.332 2°56.524 47 11.9 43 14.1
2008-02-13 09:15:20 51°21.344 2°56.542 46.9 11.8 43 14.1
2008-02-13 09:15:25 51°21.356 2°56.56 46.7 11.8 43 14.2
2008-02-13 09:15:30 51°21.367 2°56.578 46.7 11.8 43 14.2
2008-02-13 09:15:35 51°21.38 2°56.595 47.1 11.8 43 14.2
2008-02-13 09:15:40 51°21.392 2°56.613 46.8 11.9 42 14.2
2008-02-13 09:15:45 51°21.404 2°56.631 46.5 11.8 43 14.2
2008-02-13 09:15:50 51°21.416 2°56.649 46.5 11.8 43 14.3
2008-02-13 09:15:55 51°21.428 2°56.666 46.8 11.8 42 14.3
2008-02-13 09:16:00 51°21.44 2°56.684 46.4 11.8 43 14.3
2008-02-13 09:16:05 51°21.452 2°56.702 46.4 11.8 42 14.3
2008-02-13 09:16:10 51°21.464 2°56.72 46.2 11.9 43 14.4
2008-02-13 09:16:15 51°21.476 2°56.737 46.4 11.8 43 14.3
2008-02-13 09:16:20 51°21.489 2°56.755 46.8 11.9 43 14.3
2008-02-13 09:16:25 51°21.501 2°56.773 47 11.8 43 14.3
2008-02-13 09:16:30 51°21.513 2°56.791 46.7 11.9 42 14.4
2008-02-13 09:16:35 51°21.525 2°56.809 46.4 11.9 43 14.4
2008-02-13 09:16:40 51°21.537 2°56.826 46.4 11.9 42 14.4
2008-02-13 09:16:45 51°21.549 2°56.844 46.2 11.9 43 14.4
2008-02-13 09:16:50 51°21.561 2°56.862 46.4 11.9 43 14.4
2008-02-13 09:16:55 51°21.573 2°56.88 46.7 11.9 43 14.4
2008-02-13 09:17:00 51°21.585 2°56.898 46.8 11.9 43 14.5
2008-02-13 09:17:05 51°21.597 2°56.916 46.7 11.9 43 14.5
2008-02-13 09:17:10 51°21.61 2°56.934 46.6 12 42 14.6
2008-02-13 09:17:15 51°21.622 2°56.951 46.2 11.9 42 14.5
2008-02-13 09:17:20 51°21.635 2°56.969 46.2 11.9 41 14.6
2008-02-13 09:17:25 51°21.647 2°56.986 45.4 11.9 42 14.5
2008-02-13 09:17:30 51°21.659 2°57.003 45.3 11.9 40 14.6
2008-02-13 09:17:35 51°21.671 2°57.021 45 11.9 42 14.5
2008-02-13 09:17:40 51°21.684 2°57.039 45.6 11.9 42 14.5
2008-02-13 09:17:45 51°21.696 2°57.056 45.8 12 42 14.5
2008-02-13 09:17:50 51°21.709 2°57.074 45.7 11.9 42 14.6
2008-02-13 09:17:55 51°21.721 2°57.091 45.7 11.9 41 14.6
2008-02-13 09:18:00 51°21.733 2°57.109 45.7 11.9 41 14.7
2008-02-13 09:18:05 51°21.746 2°57.126 45.5 11.9 40 14.7
2008-02-13 09:18:10 51°21.758 2°57.144 45.1 11.9 42 14.8
2008-02-13 09:18:15 51°21.771 2°57.161 45.5 12 41 14.8
2008-02-13 09:18:20 51°21.783 2°57.179 45.6 12 42 14.9
2008-02-13 09:18:25 51°21.795 2°57.197 45.6 11.9 42 14.9
2008-02-13 09:18:30 51°21.807 2°57.214 46.2 11.9 43 14.9
2008-02-13 09:18:35 51°21.82 2°57.232 46.5 11.9 42 14.9
2008-02-13 09:18:40 51°21.832 2°57.25 46.7 11.9 43 14.9
2008-02-13 09:18:45 51°21.844 2°57.268 46.9 11.9 43 14.9
2008-02-13 09:18:50 51°21.856 2°57.287 47.2 11.9 43 14.9
2008-02-13 09:18:55 51°21.868 2°57.305 47.2 12 43 15
2008-02-13 09:19:00 51°21.88 2°57.322 47 12 42 15
2008-02-13 09:19:05 51°21.893 2°57.34 46.4 12 42 14.9
2008-02-13 09:19:10 51°21.905 2°57.358 46.2 11.9 42 14.9
2008-02-13 09:19:15 51°21.918 2°57.375 45.9 12 41 14.9
2008-02-13 09:19:20 51°21.93 2°57.393 45.5 11.9 41 15
2008-02-13 09:19:25 51°21.942 2°57.41 45.1 12 42 15
2008-02-13 09:19:30 51°21.955 2°57.428 45.6 11.9 41 14.9
2008-02-13 09:19:35 51°21.967 2°57.446 45.6 11.9 42 15.1
2008-02-13 09:19:40 51°21.979 2°57.464 45.7 11.9 42 15.2
2008-02-13 09:19:45 51°21.992 2°57.481 46.1 11.9 42 15.1
2008-02-13 09:19:50 51°22.004 2°57.499 46.1 12 42 15.3
2008-02-13 09:19:55 51°22.016 2°57.517 46.2 12 42 15.4
2008-02-13 09:20:00 51°22.029 2°57.535 46.2 12 42 15.4
2008-02-13 09:20:05 51°22.041 2°57.553 45.9 12 43 15.5
2008-02-13 09:20:10 51°22.053 2°57.571 46.3 11.9 43 15.5
2008-02-13 09:20:15 51°22.065 2°57.589 46.4 12 42 15.6
2008-02-13 09:20:20 51°22.077 2°57.607 46.4 12 43 15.6
2008-02-13 09:20:25 51°22.089 2°57.625 46.5 11.9 43 15.6
2008-02-13 09:20:30 51°22.101 2°57.643 46.7 11.9 44 15.6
2008-02-13 09:20:35 51°22.113 2°57.661 47.1 11.9 44 15.7
2008-02-13 09:20:40 51°22.125 2°57.679 47.2 11.9 43 15.7
2008-02-13 09:20:45 51°22.137 2°57.697 46.8 11.9 44 15.7
2008-02-13 09:20:50 51°22.149 2°57.715 46.9 11.9 42 15.7
2008-02-13 09:20:55 51°22.161 2°57.733 46.4 11.9 43 15.7
2008-02-13 09:21:00 51°22.174 2°57.751 46.4 11.9 42 15.7
2008-02-13 09:21:05 51°22.186 2°57.769 46 11.8 43 15.7
2008-02-13 09:21:10 51°22.198 2°57.786 45.9 11.9 42 15.8
2008-02-13 09:21:15 51°22.21 2°57.804 45.9 11.9 43 15.8
2008-02-13 09:21:20 51°22.222 2°57.822 45.9 11.9 43 15.8
2008-02-13 09:21:25 51°22.234 2°57.84 46 11.9 44 15.9
2008-02-13 09:21:30 51°22.246 2°57.858 46.5 11.9 43 15.8
2008-02-13 09:21:35 51°22.258 2°57.877 46.9 11.9 44 15.9
2008-02-13 09:21:40 51°22.27 2°57.895 47 11.9 43 15.9
2008-02-13 09:21:45 51°22.282 2°57.913 46.9 11.9 43 15.9
2008-02-13 09:21:50 51°22.295 2°57.931 46.7 11.9 43 16.1
2008-02-13 09:21:55 51°22.307 2°57.949 46.5 12 42 16.1
2008-02-13 09:22:00 51°22.319 2°57.967 45.8 12 42 16.1
2008-02-13 09:22:05 51°22.331 2°57.985 45.6 11.9 43 16.1
2008-02-13 09:22:10 51°22.343 2°58.003 46.1 11.9 43 16.2
2008-02-13 09:22:15 51°22.356 2°58.021 46.3 11.9 43 16.2
2008-02-13 09:22:20 51°22.368 2°58.039 46.1 12 43 16.2
2008-02-13 09:22:25 51°22.38 2°58.057 46.3 12 43 16.2
2008-02-13 09:22:30 51°22.392 2°58.075 46.4 12 44 16.2
2008-02-13 09:22:35 51°22.404 2°58.094 47.1 12 44 16.1
2008-02-13 09:22:40 51°22.416 2°58.112 47.1 11.9 44 16.1
2008-02-13 09:22:45 51°22.428 2°58.13 46.9 12 43 16.2
2008-02-13 09:22:50 51°22.44 2°58.148 47.1 12 43 16.2
2008-02-13 09:22:55 51°22.452 2°58.166 46.3 12 42 16.3
2008-02-13 09:23:00 51°22.464 2°58.184 45.8 12 43 16.3
2008-02-13 09:23:05 51°22.477 2°58.201 45.8 12 41 16.3
2008-02-13 09:23:10 51°22.489 2°58.219 45.1 11.8 42 16.3
2008-02-13 09:23:15 51°22.501 2°58.237 45.3 11.9 42 16.3
2008-02-13 09:23:20 51°22.514 2°58.255 45.6 11.9 42 16.2
2008-02-13 09:23:25 51°22.526 2°58.273 45.6 12 43 16.2
2008-02-13 09:23:30 51°22.538 2°58.291 45.8 12 42 16.3
2008-02-13 09:23:35 51°22.55 2°58.309 46 12 43 16.2
2008-02-13 09:23:40 51°22.563 2°58.327 46 12 43 16.3
2008-02-13 09:23:45 51°22.575 2°58.344 45.9 12 42 16.3
2008-02-13 09:23:50 51°22.587 2°58.362 45.4 11.9 43 16.3
2008-02-13 09:23:55 51°22.599 2°58.38 45.4 12 43 16.2
2008-02-13 09:24:00 51°22.612 2°58.398 45.9 12.1 42 16.2
2008-02-13 09:24:05 51°22.624 2°58.417 45.8 12 44 16.3
2008-02-13 09:24:10 51°22.636 2°58.435 46.8 12 42 16.3
2008-02-13 09:24:15 51°22.648 2°58.453 46.4 11.9 44 16.3
2008-02-13 09:24:20 51°22.66 2°58.471 46.4 12 43 16.3
2008-02-13 09:24:25 51°22.673 2°58.49 46.7 12.1 43 16.4
2008-02-13 09:24:30 51°22.685 2°58.508 46.3 12 43 16.5
2008-02-13 09:24:35 51°22.697 2°58.526 46.4 12.1 43 16.4
2008-02-13 09:24:40 51°22.709 2°58.544 46.2 12.1 42 16.3
2008-02-13 09:24:45 51°22.722 2°58.562 45.6 12.1 43 16.4
2008-02-13 09:24:50 51°22.734 2°58.58 45.8 12.1 43 16.4
2008-02-13 09:24:55 51°22.746 2°58.599 46.1 12.1 44 16.5
2008-02-13 09:25:00 51°22.758 2°58.617 46.7 12 44 16.6
2008-02-13 09:25:05 51°22.77 2°58.635 47 12.1 44 16.5
2008-02-13 09:25:10 51°22.782 2°58.654 47 12 44 16.6
2008-02-13 09:25:15 51°22.794 2°58.673 47.2 12.1 44 16.7
2008-02-13 09:25:20 51°22.806 2°58.691 46.9 12 43 16.7
2008-02-13 09:25:25 51°22.818 2°58.709 46.4 12 44 16.7
2008-02-13 09:25:30 51°22.831 2°58.727 46.6 12.1 42 16.8
2008-02-13 09:25:35 51°22.843 2°58.745 45.8 12 43 16.7
2008-02-13 09:25:40 51°22.855 2°58.763 45.6 12 43 16.7
2008-02-13 09:25:45 51°22.867 2°58.781 45.9 12 43 16.8
2008-02-13 09:25:50 51°22.88 2°58.799 45.7 12 43 16.9
2008-02-13 09:25:55 51°22.892 2°58.817 45.6 11.9 43 16.8
2008-02-13 09:26:00 51°22.904 2°58.835 45.7 12 43 16.8
2008-02-13 09:26:05 51°22.916 2°58.854 46.1 12 43 16.9
2008-02-13 09:26:10 51°22.928 2°58.872 46.4 12 43 16.8
2008-02-13 09:26:15 51°22.941 2°58.89 46.2 12 43 16.8
2008-02-13 09:26:20 51°22.953 2°58.908 46 12 43 16.9
2008-02-13 09:26:25 51°22.965 2°58.926 46.3 12 44 16.8
2008-02-13 09:26:30 51°22.977 2°58.945 46.6 12 44 16.9
2008-02-13 09:26:35 51°22.989 2°58.963 47.1 12 44 16.9
2008-02-13 09:26:40 51°23.001 2°58.982 47.1 12 44 16.9
2008-02-13 09:26:45 51°23.013 2°59 47 11.9 43 16.9
2008-02-13 09:26:50 51°23.024 2°59.018 46.9 11.9 44 16.9
2008-02-13 09:26:55 51°23.037 2°59.037 47.1 11.9 43 17
2008-02-13 09:27:00 51°23.049 2°59.055 46.7 11.9 44 16.9
2008-02-13 09:27:05 51°23.061 2°59.073 46.7 11.9 43 17
2008-02-13 09:27:10 51°23.073 2°59.091 46.7 11.9 44 16.9
2008-02-13 09:27:15 51°23.085 2°59.11 46.7 12 43 17
2008-02-13 09:27:20 51°23.097 2°59.128 46.7 11.9 44 17
2008-02-13 09:27:25 51°23.109 2°59.146 47 12 43 16.9
2008-02-13 09:27:30 51°23.12 2°59.164 47 11.9 44 16.9
2008-02-13 09:27:35 51°23.132 2°59.183 47.1 11.9 44 16.9
2008-02-13 09:27:40 51°23.145 2°59.201 47.2 11.9 43 17
2008-02-13 09:27:45 51°23.156 2°59.219 46.6 11.9 43 17.1
2008-02-13 09:27:50 51°23.169 2°59.237 46.6 12 42 17
2008-02-13 09:27:55 51°23.181 2°59.255 45.9 11.9 43 17
2008-02-13 09:28:00 51°23.193 2°59.272 45.6 11.9 42 17
2008-02-13 09:28:05 51°23.205 2°59.291 45.6 11.9 43 17
2008-02-13 09:28:10 51°23.217 2°59.309 45.8 11.9 43 17
2008-02-13 09:28:15 51°23.229 2°59.327 45.9 11.9 44 16.8
2008-02-13 09:28:20 51°23.241 2°59.345 46.2 11.9 43 17
2008-02-13 09:28:25 51°23.253 2°59.363 46.5 11.9 44 17
2008-02-13 09:28:30 51°23.265 2°59.381 46.5 11.9 43 17.1
2008-02-13 09:28:35 51°23.277 2°59.399 46.2 11.9 44 16.9
2008-02-13 09:28:40 51°23.289 2°59.417 46.4 11.9 43 17.1
2008-02-13 09:28:45 51°23.301 2°59.436 46.5 11.9 45 17.1
2008-02-13 09:28:50 51°23.313 2°59.454 47.1 11.9 43 17
2008-02-13 09:28:55 51°23.325 2°59.472 46.8 11.9 44 17.1
2008-02-13 09:29:00 51°23.337 2°59.49 46.5 11.9 43 17.3
2008-02-13 09:29:05 51°23.349 2°59.508 46.4 11.9 43 17.4
2008-02-13 09:29:10 51°23.361 2°59.526 46.1 11.9 43 17.4
2008-02-13 09:29:15 51°23.373 2°59.544 46 11.9 43 17.4
2008-02-13 09:29:20 51°23.385 2°59.561 45.8 11.8 43 17.4
2008-02-13 09:29:25 51°23.397 2°59.579 45.8 11.8 42 17.3
2008-02-13 09:29:30 51°23.409 2°59.597 45.6 11.9 42 17.4
2008-02-13 09:29:35 51°23.421 2°59.615 45.3 11.8 43 17.4
2008-02-13 09:29:40 51°23.433 2°59.632 45.6 11.9 43 17.3
2008-02-13 09:29:45 51°23.446 2°59.65 45.8 11.9 42 17.4
2008-02-13 09:29:50 51°23.458 2°59.668 45.7 11.9 43 17.4
2008-02-13 09:29:55 51°23.47 2°59.686 45.9 11.9 43 17.3
2008-02-13 09:30:00 51°23.482 2°59.704 46.1 11.8 43 17.4
2008-02-13 09:30:05 51°23.493 2°59.722 46.5 11.8 44 17.2
2008-02-13 09:30:10 51°23.505 2°59.74 47.1 11.9 44 17.2
2008-02-13 09:30:15 51°23.517 2°59.758 47.1 11.9 43 17.2
2008-02-13 09:30:20 51°23.529 2°59.777 46.7 11.8 44 17.3
2008-02-13 09:30:25 51°23.541 2°59.795 47 11.9 43 17.3
2008-02-13 09:30:30 51°23.553 2°59.813 46.9 11.9 44 17.4
2008-02-13 09:30:35 51°23.565 2°59.831 46.5 11.9 43 17.4
2008-02-13 09:30:40 51°23.577 2°59.849 46.5 11.9 44 17.6
2008-02-13 09:30:45 51°23.589 2°59.868 46.8 11.9 44 17.4
2008-02-13 09:30:50 51°23.601 2°59.886 47 11.9 43 17.5
2008-02-13 09:30:55 51°23.613 2°59.904 46.4 11.9 43 17.4
2008-02-13 09:31:00 51°23.625 2°59.922 46.1 11.9 43 17.5
2008-02-13 09:31:05 51°23.637 2°59.939 45.8 11.9 43 17.3
2008-02-13 09:31:10 51°23.649 2°59.958 45.6 11.9 43 17.5
2008-02-13 09:31:15 51°23.662 2°59.976 45.6 11.9 43 17.1
2008-02-13 09:31:20 51°23.673 2°59.994 45.9 11.9 44 17.4
2008-02-13 09:31:25 51°23.685 3°0.012 46.2 11.8 44 17.3
2008-02-13 09:31:30 51°23.697 3°0.031 46.4 11.9 45 17.2
2008-02-13 09:31:35 51°23.709 3°0.049 47.1 11.9 43 17.3
2008-02-13 09:31:40 51°23.721 3°0.067 47 11.8 43 17.7
2008-02-13 09:31:45 51°23.734 3°0.083 46.2 11.8 39 17.3
2008-02-13 09:31:50 51°23.748 3°0.098 43.7 11.7 34 17.6
2008-02-13 09:31:55 51°23.762 3°0.11 39.7 11.7 28 17.5
2008-02-13 09:32:00 51°23.777 3°0.12 33.4 11.8 23 17.4
2008-02-13 09:32:05 51°23.793 3°0.128 28.2 11.8 17 17.5
2008-02-13 09:32:10 51°23.809 3°0.133 23 11.8 11 17.5
2008-02-13 09:32:15 51°23.825 3°0.136 17.5 11.9 6 17.5
2008-02-13 09:32:20 51°23.842 3°0.136 13.3 12 -999 17.3
2008-02-13 09:32:25 51°23.859 3°0.133 7.9 12.1 353 17.2
2008-02-13 09:32:30 51°23.875 3°0.128 2.2 12.1 348 17
2008-02-13 09:32:35 51°23.891 3°0.12 356.4 12.2 343 16.8
2008-02-13 09:32:40 51°23.907 3°0.11 351 12.4 338 16.7
2008-02-13 09:32:45 51°23.923 3°0.097 345.2 12.4 331 16.5
2008-02-13 09:32:50 51°23.937 3°0.082 338.4 12.5 327 16.3
2008-02-13 09:32:55 51°23.951 3°0.065 332.4 12.6 321 16
2008-02-13 09:33:00 51°23.963 3°0.045 327.8 12.7 316 16
2008-02-13 09:33:05 51°23.975 3°0.024 321.9 12.9 312 15.9
2008-02-13 09:33:10 51°23.987 3°0.002 316 13 310 15.9
2008-02-13 09:33:15 51°23.999 2°59.981 314.7 13 313 15.8
2008-02-13 09:33:20 51°24.011 2°59.959 315.8 13.2 312 15.7
2008-02-13 09:33:25 51°24.023 2°59.937 315.6 13.2 310 15.8
2008-02-13 09:33:30 51°24.035 2°59.914 314.2 13.3 311 15.7
2008-02-13 09:33:35 51°24.047 2°59.892 313.9 13.4 310 15.7
2008-02-13 09:33:40 51°24.059 2°59.869 313.2 13.4 310 15.6
2008-02-13 09:33:45 51°24.071 2°59.846 313 13.4 309 15.6
2008-02-13 09:33:50 51°24.082 2°59.823 312.9 13.4 309 15.5
2008-02-13 09:33:55 51°24.094 2°59.8 312.9 13.4 310 15.5
2008-02-13 09:34:00 51°24.106 2°59.777 313.2 13.4 310 15.4
2008-02-13 09:34:05 51°24.119 2°59.755 313.5 13.4 311 15.3
2008-02-13 09:34:10 51°24.131 2°59.732 314.2 13.4 310 15.4
2008-02-13 09:34:15 51°24.142 2°59.709 314.6 13.2 309 15.3
2008-02-13 09:34:20 51°24.151 2°59.684 312 13.3 301 15.3
2008-02-13 09:34:25 51°24.16 2°59.658 306.1 13.3 297 15.2
2008-02-13 09:34:30 51°24.168 2°59.631 300.2 13.3 296 15.2
2008-02-13 09:34:35 51°24.176 2°59.604 299.4 13.4 295 15.2
2008-02-13 09:34:40 51°24.181 2°59.575 297.1 13.5 289 15.2
2008-02-13 09:34:45 51°24.187 2°59.547 292.6 13.5 287 15.1
2008-02-13 09:34:50 51°24.192 2°59.518 289.5 13.5 284 15.2
2008-02-13 09:34:55 51°24.197 2°59.489 286.6 13.6 285 15.1
2008-02-13 09:35:00 51°24.201 2°59.459 285.1 13.7 282 15
2008-02-13 09:35:05 51°24.205 2°59.43 283.6 13.7 283 15.1
2008-02-13 09:35:10 51°24.208 2°59.4 282.6 13.7 279 15.1
2008-02-13 09:35:15 51°24.211 2°59.37 280.1 13.7 280 15
2008-02-13 09:35:20 51°24.214 2°59.34 279.5 13.7 278 15
2008-02-13 09:35:25 51°24.216 2°59.31 278.7 13.7 279 14.9
2008-02-13 09:35:30 51°24.219 2°59.279 278.2 13.8 278 14.9
2008-02-13 09:35:35 51°24.222 2°59.249 278.1 13.8 279 14.8
2008-02-13 09:35:40 51°24.225 2°59.219 278.3 13.8 278 14.7
2008-02-13 09:35:45 51°24.228 2°59.189 278.6 13.8 279 14.8
2008-02-13 09:35:50 51°24.231 2°59.159 279.3 13.7 280 14.7
2008-02-13 09:35:55 51°24.234 2°59.129 279.9 13.7 280 13.9
2008-02-13 09:36:00 51°24.238 2°59.099 280 13.7 280 13.8
2008-02-13 09:36:05 51°24.241 2°59.069 280.1 13.7 280 13.9
2008-02-13 09:36:10 51°24.244 2°59.039 280.1 13.8 279 13.9
2008-02-13 09:36:15 51°24.247 2°59.009 280 13.8 280 14
2008-02-13 09:36:20 51°24.25 2°58.979 279.9 13.8 279 14
2008-02-13 09:36:25 51°24.253 2°58.949 280.1 13.8 279 14
2008-02-13 09:36:30 51°24.256 2°58.918 280.1 13.8 279 14.1
2008-02-13 09:36:35 51°24.259 2°58.888 279.5 13.8 278 14.2
2008-02-13 09:36:40 51°24.262 2°58.858 279.2 13.8 278 14.1
2008-02-13 09:36:45 51°24.264 2°58.828 279.2 13.8 278 14.1
2008-02-13 09:36:50 51°24.267 2°58.797 278.8 13.8 278 14.3
2008-02-13 09:36:55 51°24.27 2°58.767 279.3 13.8 279 14.3
2008-02-13 09:37:00 51°24.273 2°58.737 280.1 13.8 279 14.4
2008-02-13 09:37:05 51°24.277 2°58.707 280.4 13.8 280 14.5
2008-02-13 09:37:10 51°24.28 2°58.677 280.8 13.8 280 14.5
2008-02-13 09:37:15 51°24.283 2°58.647 280.8 13.7 280 14.7
2008-02-13 09:37:20 51°24.286 2°58.617 280.8 13.8 279 14.8
2008-02-13 09:37:25 51°24.289 2°58.587 280.8 13.8 279 14.9
2008-02-13 09:37:30 51°24.292 2°58.557 280.3 13.7 278 15
2008-02-13 09:37:35 51°24.294 2°58.527 279.7 13.7 279 15.1
2008-02-13 09:37:40 51°24.297 2°58.496 279.5 13.7 278 15
2008-02-13 09:37:45 51°24.3 2°58.466 279.7 13.8 279 14.6
2008-02-13 09:37:50 51°24.303 2°58.436 279.9 13.8 278 14.1
2008-02-13 09:37:55 51°24.306 2°58.406 279.9 13.8 279 14.8
2008-02-13 09:38:00 51°24.309 2°58.376 279.8 13.8 279 15.1
2008-02-13 09:38:05 51°24.312 2°58.346 280.3 13.8 280 15.2
2008-02-13 09:38:10 51°24.315 2°58.316 281 13.8 280 15.4
2008-02-13 09:38:15 51°24.319 2°58.286 281.2 13.8 280 15.4
2008-02-13 09:38:20 51°24.322 2°58.255 281.2 13.8 279 15.6
2008-02-13 09:38:25 51°24.325 2°58.225 280.9 13.8 280 15.5
2008-02-13 09:38:30 51°24.328 2°58.195 280.8 13.8 278 15.8
2008-02-13 09:38:35 51°24.331 2°58.165 280.1 13.8 279 15.7
2008-02-13 09:38:40 51°24.334 2°58.134 279.9 13.8 279 16
2008-02-13 09:38:45 51°24.337 2°58.104 279.9 13.8 279 15.9
2008-02-13 09:38:50 51°24.34 2°58.074 280.1 13.8 279 16
2008-02-13 09:38:55 51°24.343 2°58.044 280.2 13.8 279 16
2008-02-13 09:39:00 51°24.346 2°58.014 280.2 13.8 280 15.8
2008-02-13 09:39:05 51°24.35 2°57.983 280.7 13.8 280 15.4
2008-02-13 09:39:10 51°24.353 2°57.953 280.8 13.8 280 14.6
2008-02-13 09:39:15 51°24.356 2°57.923 281.2 13.8 280 15.7
2008-02-13 09:39:20 51°24.36 2°57.893 281.5 13.8 280 16.4
2008-02-13 09:39:25 51°24.363 2°57.863 281.2 13.8 280 16.6
2008-02-13 09:39:30 51°24.366 2°57.833 281.1 13.8 279 16.7
2008-02-13 09:39:35 51°24.369 2°57.803 280.6 13.8 279 16.5
2008-02-13 09:39:40 51°24.372 2°57.772 280.2 13.8 279 16.6
2008-02-13 09:39:45 51°24.375 2°57.742 279.9 13.8 279 16.6
2008-02-13 09:39:50 51°24.378 2°57.712 279.6 13.8 279 16.5
2008-02-13 09:39:55 51°24.381 2°57.682 279.8 13.8 279 16.4
2008-02-13 09:40:00 51°24.385 2°57.651 280.1 13.8 280 16.2
2008-02-13 09:40:05 51°24.388 2°57.622 280.6 13.8 281 14.4
2008-02-13 09:40:10 51°24.392 2°57.592 281.3 13.7 281 16.5
2008-02-13 09:40:15 51°24.395 2°57.561 281.5 13.8 281 17.2
2008-02-13 09:40:20 51°24.398 2°57.531 281.7 13.8 280 16.7
2008-02-13 09:40:25 51°24.402 2°57.502 281.3 13.7 280 16.1
2008-02-13 09:40:30 51°24.406 2°57.472 281.2 13.7 281 17.1
2008-02-13 09:40:35 51°24.41 2°57.442 281.4 13.6 282 17
2008-02-13 09:40:40 51°24.415 2°57.414 282.1 13.5 286 16.5
2008-02-13 09:40:45 51°24.422 2°57.386 287 13.4 291 16.4
2008-02-13 09:40:50 51°24.428 2°57.358 291 13.4 289 16.9
2008-02-13 09:40:55 51°24.435 2°57.331 291.3 13.4 293 16.9
2008-02-13 09:41:00 51°24.444 2°57.305 294.3 13.4 297 16.9
2008-02-13 09:41:05 51°24.452 2°57.278 297.5 13.4 296 16.7
2008-02-13 09:41:10 51°24.461 2°57.252 298.5 13.4 299 16.7
2008-02-13 09:41:15 51°24.469 2°57.225 300.3 13.5 297 16.7
2008-02-13 09:41:20 51°24.479 2°57.199 300.6 13.4 300 16.2
2008-02-13 09:41:25 51°24.487 2°57.173 301.3 13.5 298 15.5
2008-02-13 09:41:30 51°24.497 2°57.147 301.7 13.5 299 15.8
2008-02-13 09:41:35 51°24.506 2°57.121 301.8 13.5 299 16.6
2008-02-13 09:41:40 51°24.515 2°57.095 302 13.5 299 17.2
2008-02-13 09:41:45 51°24.524 2°57.068 302 13.5 299 17.4
2008-02-13 09:41:50 51°24.533 2°57.042 301.9 13.5 299 17.6
2008-02-13 09:41:55 51°24.542 2°57.015 301.8 13.5 298 17.6
2008-02-13 09:42:00 51°24.551 2°56.989 301.2 13.6 298 17.6
2008-02-13 09:42:05 51°24.56 2°56.962 300.8 13.6 297 17.6
2008-02-13 09:42:10 51°24.568 2°56.935 300.4 13.6 297 17.9
2008-02-13 09:42:15 51°24.577 2°56.909 300.4 13.6 297 18.2
2008-02-13 09:42:20 51°24.586 2°56.882 300.7 13.6 298 18.5
2008-02-13 09:42:25 51°24.594 2°56.855 300.8 13.6 297 18.8
2008-02-13 09:42:30 51°24.603 2°56.828 300.7 13.6 298 19.1
2008-02-13 09:42:35 51°24.612 2°56.802 301.1 13.6 298 19.1
2008-02-13 09:42:40 51°24.621 2°56.775 301.3 13.6 298 19.6
2008-02-13 09:42:45 51°24.63 2°56.748 301.6 13.6 298 19.9